createdAt,value
2022-08-24T00:01:31.622Z,20.70
2022-08-24T00:04:00.654Z,20.60
2022-08-24T00:06:29.847Z,20.60
2022-08-24T00:08:59.842Z,20.60
2022-08-24T00:11:28.964Z,20.50
2022-08-24T00:13:58.215Z,20.50
2022-08-24T00:16:28.016Z,20.50
2022-08-24T00:18:58.802Z,20.50
2022-08-24T00:21:28.264Z,20.50
2022-08-24T00:23:57.903Z,20.40
2022-08-24T00:26:30.763Z,20.40
2022-08-24T00:29:04.191Z,20.40
2022-08-24T00:31:36.397Z,20.30
2022-08-24T00:34:06.925Z,20.30
2022-08-24T00:36:35.918Z,20.30
2022-08-24T00:39:06.420Z,20.30
2022-08-24T00:41:36.172Z,20.30
2022-08-24T00:44:06.874Z,20.30
2022-08-24T00:46:46.807Z,20.30
2022-08-24T00:49:24.710Z,20.30
2022-08-24T00:52:04.503Z,20.40
2022-08-24T00:54:37.740Z,20.30
2022-08-24T00:57:10.287Z,20.30
2022-08-24T00:59:44.161Z,20.30
2022-08-24T01:02:19.781Z,20.30
2022-08-24T01:04:54.675Z,20.30
2022-08-24T01:07:25.567Z,20.30
2022-08-24T01:09:57.859Z,20.20
2022-08-24T01:12:30.193Z,20.20
2022-08-24T01:15:01.680Z,20.20
2022-08-24T01:17:49.540Z,20.20
2022-08-24T01:20:23.256Z,20.20
2022-08-24T01:23:00.274Z,20.10
2022-08-24T01:25:34.134Z,20.10
2022-08-24T01:28:09.702Z,20.00
2022-08-24T01:30:38.691Z,20.00
2022-08-24T01:33:10.443Z,20.00
2022-08-24T01:35:40.484Z,19.90
2022-08-24T01:38:12.633Z,19.90
2022-08-24T01:40:47.070Z,19.90
2022-08-24T01:43:16.234Z,19.80
2022-08-24T01:45:45.455Z,19.80
2022-08-24T01:48:15.380Z,19.80
2022-08-24T01:50:53.591Z,19.70
2022-08-24T01:53:25.857Z,19.70
2022-08-24T01:55:56.390Z,19.70
2022-08-24T01:58:25.726Z,19.70
2022-08-24T02:00:55.319Z,19.60
2022-08-24T02:03:27.674Z,19.60
2022-08-24T02:06:00.034Z,19.60
2022-08-24T02:08:31.902Z,19.50
2022-08-24T02:11:02.067Z,19.50
2022-08-24T02:13:31.411Z,19.50
2022-08-24T02:16:00.911Z,19.50
2022-08-24T02:18:33.367Z,19.50
2022-08-24T02:21:03.403Z,19.40
2022-08-24T02:23:33.656Z,19.40
2022-08-24T02:26:04.238Z,19.30
2022-08-24T02:28:33.870Z,19.30
2022-08-24T02:31:05.895Z,19.30
2022-08-24T02:33:36.333Z,19.30
2022-08-24T02:36:26.242Z,19.30
2022-08-24T02:38:58.083Z,19.30
2022-08-24T02:41:29.222Z,19.30
2022-08-24T02:43:58.799Z,19.30
2022-08-24T02:46:30.326Z,19.30
2022-08-24T02:49:10.368Z,19.20
2022-08-24T02:51:45.778Z,19.20
2022-08-24T02:54:23.432Z,19.20
2022-08-24T02:56:55.701Z,19.10
2022-08-24T02:59:24.818Z,19.10
2022-08-24T03:01:54.861Z,19.10
2022-08-24T03:04:26.467Z,19.10
2022-08-24T03:06:55.275Z,19.10
2022-08-24T03:09:25.594Z,19.10
2022-08-24T03:12:00.729Z,19.10
2022-08-24T03:14:29.523Z,19.00
2022-08-24T03:16:58.823Z,19.00
2022-08-24T03:19:27.560Z,19.00
2022-08-24T03:21:57.128Z,19.00
2022-08-24T03:24:28.414Z,19.00
2022-08-24T03:26:58.334Z,19.00
2022-08-24T03:29:30.349Z,18.90
2022-08-24T03:32:03.006Z,19.00
2022-08-24T03:34:31.910Z,18.90
2022-08-24T03:37:00.716Z,18.90
2022-08-24T03:39:30.773Z,18.90
2022-08-24T03:42:00.244Z,18.90
2022-08-24T03:44:30.691Z,18.80
2022-08-24T03:46:59.966Z,18.80
2022-08-24T03:49:31.122Z,18.80
2022-08-24T03:52:00.398Z,18.80
2022-08-24T03:54:29.313Z,18.80
2022-08-24T03:56:59.847Z,18.70
2022-08-24T03:59:31.614Z,18.70
2022-08-24T04:02:01.007Z,18.70
2022-08-24T04:04:31.130Z,18.70
2022-08-24T04:07:00.307Z,18.70
2022-08-24T04:09:30.154Z,18.60
2022-08-24T04:11:59.609Z,18.60
2022-08-24T04:14:30.487Z,18.60
2022-08-24T04:17:07.316Z,18.60
2022-08-24T04:19:57.609Z,18.60
2022-08-24T04:22:33.006Z,18.60
2022-08-24T04:25:02.724Z,18.60
2022-08-24T04:27:38.716Z,18.60
2022-08-24T04:30:14.272Z,18.60
2022-08-24T04:33:02.599Z,18.50
2022-08-24T04:35:31.978Z,18.50
2022-08-24T04:38:01.534Z,18.50
2022-08-24T04:40:31.480Z,18.50
2022-08-24T04:43:02.088Z,18.50
2022-08-24T04:45:34.156Z,18.50
2022-08-24T04:48:04.222Z,18.50
2022-08-24T04:50:36.330Z,18.50
2022-08-24T04:53:06.411Z,18.40
2022-08-24T04:55:43.907Z,18.40
2022-08-24T04:58:15.444Z,18.40
2022-08-24T05:00:46.894Z,18.30
2022-08-24T05:03:17.079Z,18.30
2022-08-24T05:05:50.521Z,18.30
2022-08-24T05:08:21.046Z,18.30
2022-08-24T05:10:52.029Z,18.30
2022-08-24T05:13:22.430Z,18.30
2022-08-24T05:15:52.935Z,18.30
2022-08-24T05:18:22.384Z,18.40
2022-08-24T05:20:51.403Z,18.40
2022-08-24T05:23:21.167Z,18.50
2022-08-24T05:25:50.508Z,18.50
2022-08-24T05:28:20.300Z,18.50
2022-08-24T05:30:51.222Z,18.60
2022-08-24T05:33:22.012Z,18.60
2022-08-24T05:35:51.351Z,18.60
2022-08-24T05:38:20.654Z,18.70
2022-08-24T05:40:51.243Z,18.70
2022-08-24T05:43:24.578Z,18.80
2022-08-24T05:45:54.301Z,18.90
2022-08-24T05:48:25.083Z,18.90
2022-08-24T05:51:11.248Z,19.00
2022-08-24T05:53:53.159Z,19.10
2022-08-24T05:56:27.631Z,19.10
2022-08-24T05:58:59.284Z,19.20
2022-08-24T06:01:28.628Z,19.30
2022-08-24T06:04:01.192Z,19.30
2022-08-24T06:06:30.997Z,19.40
2022-08-24T06:09:02.476Z,19.40
2022-08-24T06:11:35.874Z,19.50
2022-08-24T06:14:08.620Z,19.60
2022-08-24T06:16:52.463Z,19.60
2022-08-24T06:19:24.333Z,19.70
2022-08-24T06:21:56.650Z,19.70
2022-08-24T06:24:42.946Z,19.80
2022-08-24T06:27:26.201Z,19.80
2022-08-24T06:29:59.854Z,19.90
2022-08-24T06:32:49.421Z,20.00
2022-08-24T06:35:47.722Z,20.00
2022-08-24T06:38:17.453Z,20.20
2022-08-24T06:40:49.482Z,20.20
2022-08-24T06:43:18.628Z,20.40
2022-08-24T06:45:53.104Z,20.40
2022-08-24T06:48:25.582Z,20.40
2022-08-24T06:50:56.002Z,20.50
2022-08-24T06:53:25.491Z,20.60
2022-08-24T06:55:57.795Z,20.70
2022-08-24T06:58:28.426Z,20.80
2022-08-24T07:00:57.824Z,20.80
2022-08-24T07:03:27.707Z,20.90
2022-08-24T07:06:06.525Z,21.00
2022-08-24T07:08:56.603Z,21.10
2022-08-24T07:11:25.556Z,21.20
2022-08-24T07:13:55.508Z,21.30
2022-08-24T07:16:25.863Z,21.40
2022-08-24T07:19:02.447Z,21.50
2022-08-24T07:21:33.519Z,21.50
2022-08-24T07:24:04.256Z,21.60
2022-08-24T07:26:37.031Z,21.70
2022-08-24T07:29:30.360Z,21.90
2022-08-24T07:32:01.884Z,22.10
2022-08-24T07:34:39.753Z,22.20
2022-08-24T07:37:11.703Z,22.30
2022-08-24T07:39:44.347Z,22.50
2022-08-24T07:42:22.976Z,22.60
2022-08-24T07:44:56.175Z,22.70
2022-08-24T07:47:38.575Z,22.80
2022-08-24T07:50:22.635Z,22.90
2022-08-24T07:52:53.035Z,23.20
2022-08-24T07:55:22.198Z,23.30
2022-08-24T07:57:52.239Z,23.50
2022-08-24T08:00:23.095Z,23.60
2022-08-24T08:02:58.506Z,23.80
2022-08-24T08:05:27.875Z,24.00
2022-08-24T08:08:00.245Z,24.10
2022-08-24T08:10:33.357Z,24.20
2022-08-24T08:13:02.834Z,24.40
2022-08-24T08:15:32.741Z,24.50
2022-08-24T08:18:07.618Z,24.60
2022-08-24T08:20:41.490Z,24.60
2022-08-24T08:23:30.153Z,24.70
2022-08-24T08:26:13.139Z,24.80
2022-08-24T08:28:50.565Z,24.90
2022-08-24T08:31:20.963Z,25.00
2022-08-24T08:33:51.329Z,25.00
2022-08-24T08:36:22.150Z,25.10
2022-08-24T08:38:53.972Z,25.10
2022-08-24T08:42:03.543Z,25.20
2022-08-24T08:44:52.254Z,25.30
2022-08-24T08:47:48.876Z,25.40
2022-08-24T08:50:26.028Z,25.50
2022-08-24T08:53:30.042Z,25.50
2022-08-24T08:56:11.832Z,25.70
2022-08-24T08:58:59.324Z,25.80
2022-08-24T09:01:47.178Z,25.90
2022-08-24T09:04:59.466Z,26.00
2022-08-24T09:07:43.552Z,26.00
2022-08-24T09:10:47.895Z,26.10
2022-08-24T09:13:35.062Z,26.10
2022-08-24T09:16:28.476Z,26.20
2022-08-24T09:19:21.931Z,26.30
2022-08-24T09:22:08.448Z,26.30
2022-08-24T09:25:24.848Z,26.30
2022-08-24T09:28:43.720Z,26.40
2022-08-24T09:34:20.222Z,26.60
2022-08-24T09:36:56.559Z,26.60
2022-08-24T09:39:50.266Z,26.70
2022-08-24T09:43:04.377Z,26.70
2022-08-24T09:46:12.793Z,26.80
2022-08-24T09:49:11.191Z,26.80
2022-08-24T09:52:10.196Z,26.80
2022-08-24T09:55:10.815Z,26.80
2022-08-24T09:58:04.019Z,26.80
2022-08-24T10:00:39.947Z,26.90
2022-08-24T10:03:28.918Z,26.90
2022-08-24T10:06:29.568Z,26.90
2022-08-24T10:09:24.003Z,26.90
2022-08-24T10:12:03.727Z,27.00
2022-08-24T10:14:51.306Z,27.00
2022-08-24T10:17:33.587Z,27.10
2022-08-24T10:20:12.999Z,27.10
2022-08-24T10:23:02.119Z,27.20
2022-08-24T10:25:37.376Z,27.20
2022-08-24T10:28:37.834Z,27.30
2022-08-24T10:31:12.518Z,27.30
2022-08-24T10:33:59.192Z,27.30
2022-08-24T10:36:57.291Z,27.30
2022-08-24T10:39:47.255Z,27.40
2022-08-24T10:43:13.946Z,27.50
2022-08-24T10:46:09.335Z,27.50
2022-08-24T10:49:00.903Z,27.50
2022-08-24T10:51:44.189Z,27.60
2022-08-24T10:54:14.547Z,27.60
2022-08-24T10:56:55.889Z,27.60
2022-08-24T10:59:29.703Z,27.70
2022-08-24T11:02:06.078Z,27.70
2022-08-24T11:04:41.886Z,27.80
2022-08-24T11:07:21.854Z,27.80
2022-08-24T11:09:54.187Z,27.90
2022-08-24T11:12:27.625Z,27.90
2022-08-24T11:15:00.150Z,28.00
2022-08-24T11:17:31.263Z,28.00
2022-08-24T11:20:01.335Z,28.10
2022-08-24T11:22:41.042Z,28.20
2022-08-24T11:25:21.895Z,28.20
2022-08-24T11:27:54.071Z,28.20
2022-08-24T11:30:26.762Z,28.30
2022-08-24T11:32:58.572Z,28.40
2022-08-24T11:35:36.406Z,28.40
2022-08-24T11:38:15.161Z,28.50
2022-08-24T11:40:51.138Z,28.60
2022-08-24T11:43:31.912Z,28.60
2022-08-24T11:46:12.958Z,28.70
2022-08-24T11:48:54.087Z,28.70
2022-08-24T11:51:32.407Z,28.80
2022-08-24T11:54:09.586Z,28.80
2022-08-24T11:56:46.923Z,28.90
2022-08-24T11:59:34.904Z,29.00
2022-08-24T12:02:09.409Z,29.00
2022-08-24T12:04:47.437Z,29.10
2022-08-24T12:07:27.695Z,29.10
2022-08-24T12:10:14.623Z,29.20
2022-08-24T12:12:47.929Z,29.30
2022-08-24T12:15:20.615Z,29.50
2022-08-24T12:17:57.320Z,29.50
2022-08-24T12:20:32.266Z,29.70
2022-08-24T12:23:05.678Z,29.80
2022-08-24T12:25:56.848Z,29.80
2022-08-24T12:28:30.381Z,29.90
2022-08-24T12:31:05.465Z,30.00
2022-08-24T12:33:39.310Z,30.00
2022-08-24T12:36:17.800Z,29.90
2022-08-24T12:38:50.942Z,29.80
2022-08-24T12:41:28.199Z,29.80
2022-08-24T12:44:03.408Z,29.70
2022-08-24T12:46:32.763Z,29.70
2022-08-24T12:49:06.751Z,29.70
2022-08-24T12:51:56.348Z,29.80
2022-08-24T12:54:53.315Z,29.80
2022-08-24T12:57:54.574Z,29.90
2022-08-24T13:00:28.102Z,30.00
2022-08-24T13:03:00.278Z,30.10
2022-08-24T13:05:41.702Z,30.10
2022-08-24T13:08:16.336Z,30.20
2022-08-24T13:10:54.126Z,30.10
2022-08-24T13:13:48.100Z,30.10
2022-08-24T13:16:47.499Z,30.00
2022-08-24T13:19:32.057Z,29.90
2022-08-24T13:22:22.541Z,29.80
2022-08-24T13:25:19.752Z,29.70
2022-08-24T13:28:27.737Z,29.70
2022-08-24T13:31:31.459Z,29.60
2022-08-24T13:34:22.095Z,29.50
2022-08-24T13:37:02.716Z,29.50
2022-08-24T13:39:48.348Z,29.40
2022-08-24T13:42:29.642Z,29.30
2022-08-24T13:45:33.229Z,29.30
2022-08-24T13:48:24.686Z,29.20
2022-08-24T13:51:20.652Z,29.20
2022-08-24T13:54:03.767Z,29.20
2022-08-24T13:57:02.062Z,29.10
2022-08-24T14:00:07.106Z,29.10
2022-08-24T14:02:52.196Z,29.10
2022-08-24T14:05:33.395Z,29.10
2022-08-24T14:08:16.212Z,29.10
2022-08-24T14:10:57.498Z,29.00
2022-08-24T14:13:45.500Z,29.00
2022-08-24T14:16:54.054Z,28.90
2022-08-24T14:19:32.019Z,28.90
2022-08-24T14:22:08.408Z,28.80
2022-08-24T14:24:46.081Z,28.80
2022-08-24T14:27:40.983Z,28.80
2022-08-24T14:30:54.554Z,28.70
2022-08-24T14:33:31.297Z,28.60
2022-08-24T14:36:16.933Z,28.60
2022-08-24T14:39:06.966Z,28.50
2022-08-24T14:41:57.350Z,28.40
2022-08-24T14:45:01.570Z,28.40
2022-08-24T14:47:44.362Z,28.40
2022-08-24T14:50:18.125Z,28.30
2022-08-24T14:53:02.741Z,28.30
2022-08-24T14:55:42.353Z,28.20
2022-08-24T14:58:30.153Z,28.20
2022-08-24T15:01:25.203Z,28.20
2022-08-24T15:04:11.843Z,28.20
2022-08-24T15:06:47.546Z,28.10
2022-08-24T15:09:26.412Z,28.10
2022-08-24T15:12:05.959Z,28.10
2022-08-24T15:14:42.271Z,28.10
2022-08-24T15:17:16.921Z,28.10
2022-08-24T15:19:55.936Z,28.10
2022-08-24T15:22:40.309Z,28.10
2022-08-24T15:25:20.967Z,28.10
2022-08-24T15:27:56.787Z,28.10
2022-08-24T15:30:30.817Z,28.00
2022-08-24T15:33:06.325Z,28.10
2022-08-24T15:35:37.881Z,28.10
2022-08-24T15:38:24.940Z,28.00
2022-08-24T15:41:04.296Z,28.00
2022-08-24T15:43:37.327Z,28.00
2022-08-24T15:46:07.251Z,28.00
2022-08-24T15:48:37.254Z,28.00
2022-08-24T15:51:07.294Z,28.00
2022-08-24T15:53:40.114Z,28.00
2022-08-24T15:56:35.965Z,28.00
2022-08-24T15:59:14.343Z,28.00
2022-08-24T16:02:01.403Z,28.00
2022-08-24T16:04:44.869Z,28.00
2022-08-24T16:07:17.214Z,28.00
2022-08-24T16:09:46.434Z,28.00
2022-08-24T16:12:23.319Z,28.00
2022-08-24T16:15:08.436Z,28.00
2022-08-24T16:17:41.318Z,28.00
2022-08-24T16:20:18.677Z,28.00
2022-08-24T16:23:00.565Z,28.00
2022-08-24T16:25:32.058Z,27.90
2022-08-24T16:28:11.328Z,28.00
2022-08-24T16:30:46.806Z,28.00
2022-08-24T16:33:36.684Z,28.00
2022-08-24T16:36:14.785Z,27.90
2022-08-24T16:38:48.899Z,27.90
2022-08-24T16:41:20.263Z,28.00
2022-08-24T16:43:50.693Z,27.90
2022-08-24T16:46:23.209Z,27.90
2022-08-24T16:48:54.082Z,27.90
2022-08-24T16:51:24.715Z,27.90
2022-08-24T16:53:54.321Z,27.90
2022-08-24T16:56:23.541Z,27.80
2022-08-24T16:58:52.823Z,27.80
2022-08-24T17:01:23.276Z,27.80
2022-08-24T17:03:52.878Z,27.70
2022-08-24T17:06:23.341Z,27.70
2022-08-24T17:08:53.713Z,27.70
2022-08-24T17:11:22.930Z,27.70
2022-08-24T17:13:51.980Z,27.70
2022-08-24T17:16:23.556Z,27.70
2022-08-24T17:18:52.596Z,27.70
2022-08-24T17:21:21.590Z,27.60
2022-08-24T17:23:51.289Z,27.60
2022-08-24T17:26:21.968Z,27.60
2022-08-24T17:28:54.371Z,27.50
2022-08-24T17:31:25.975Z,27.50
2022-08-24T17:33:56.121Z,27.50
2022-08-24T17:36:25.989Z,27.50
2022-08-24T17:39:02.934Z,27.50
2022-08-24T17:41:32.779Z,27.40
2022-08-24T17:44:02.271Z,27.40
2022-08-24T17:46:32.749Z,27.40
2022-08-24T17:49:03.984Z,27.40
2022-08-24T17:51:34.983Z,27.40
2022-08-24T17:54:04.007Z,27.30
2022-08-24T17:56:37.676Z,27.30
2022-08-24T17:59:20.598Z,27.30
2022-08-24T18:01:52.862Z,27.30
2022-08-24T18:04:25.653Z,27.30
2022-08-24T18:06:56.068Z,27.30
2022-08-24T18:09:35.114Z,27.20
2022-08-24T18:12:07.311Z,27.20
2022-08-24T18:14:36.846Z,27.20
2022-08-24T18:17:10.657Z,27.10
2022-08-24T18:19:41.006Z,27.10
2022-08-24T18:22:10.018Z,27.10
2022-08-24T18:24:40.731Z,27.00
2022-08-24T18:27:12.506Z,27.00
2022-08-24T18:29:43.652Z,26.90
2022-08-24T18:32:15.277Z,26.90
2022-08-24T18:34:44.536Z,26.90
2022-08-24T18:37:13.599Z,26.80
2022-08-24T18:39:42.695Z,26.80
2022-08-24T18:42:15.267Z,26.70
2022-08-24T18:44:44.284Z,26.70
2022-08-24T18:47:15.643Z,26.70
2022-08-24T18:49:44.807Z,26.60
2022-08-24T18:52:16.974Z,26.60
2022-08-24T18:54:48.614Z,26.50
2022-08-24T18:57:18.211Z,26.50
2022-08-24T18:59:47.466Z,26.50
2022-08-24T19:02:34.132Z,26.40
2022-08-24T19:05:08.359Z,26.40
2022-08-24T19:07:39.776Z,26.40
2022-08-24T19:10:10.900Z,26.30
2022-08-24T19:12:46.826Z,26.30
2022-08-24T19:15:29.381Z,26.30
2022-08-24T19:18:07.738Z,26.20
2022-08-24T19:20:36.843Z,26.20
2022-08-24T19:23:09.034Z,26.20
2022-08-24T19:25:41.067Z,26.20
2022-08-24T19:28:10.847Z,26.10
2022-08-24T19:30:42.124Z,26.10
2022-08-24T19:33:14.829Z,26.10
2022-08-24T19:35:44.470Z,26.00
2022-08-24T19:38:13.702Z,26.00
2022-08-24T19:40:47.571Z,26.00
2022-08-24T19:43:17.643Z,25.90
2022-08-24T19:46:02.346Z,25.90
2022-08-24T19:48:33.811Z,25.80
2022-08-24T19:51:05.206Z,25.70
2022-08-24T19:53:37.503Z,25.70
2022-08-24T19:56:07.732Z,25.70
2022-08-24T19:58:45.339Z,25.60
2022-08-24T20:01:19.246Z,25.60
2022-08-24T20:03:50.409Z,25.50
2022-08-24T20:06:22.087Z,25.40
2022-08-24T20:08:53.150Z,25.40
2022-08-24T20:11:25.068Z,25.40
2022-08-24T20:13:56.081Z,25.30
2022-08-24T20:16:28.751Z,25.20
2022-08-24T20:19:00.702Z,25.20
2022-08-24T20:21:31.554Z,25.20
2022-08-24T20:24:01.678Z,25.10
2022-08-24T20:26:35.628Z,25.10
2022-08-24T20:29:05.192Z,25.00
2022-08-24T20:31:34.697Z,25.00
2022-08-24T20:34:06.439Z,25.00
2022-08-24T20:36:38.775Z,24.90
2022-08-24T20:39:13.864Z,24.90
2022-08-24T20:41:43.396Z,24.80
2022-08-24T20:44:12.571Z,24.80
2022-08-24T20:46:42.760Z,24.80
2022-08-24T20:49:19.600Z,24.70
2022-08-24T20:51:49.212Z,24.70
2022-08-24T20:54:18.355Z,24.70
2022-08-24T20:56:47.405Z,24.60
2022-08-24T20:59:18.784Z,24.60
2022-08-24T21:01:49.780Z,24.60
2022-08-24T21:04:20.229Z,24.50
2022-08-24T21:06:51.276Z,24.50
2022-08-24T21:09:20.895Z,24.40
2022-08-24T21:11:50.212Z,24.40
2022-08-24T21:14:20.016Z,24.40
2022-08-24T21:16:49.539Z,24.40
2022-08-24T21:19:20.322Z,24.30
2022-08-24T21:21:49.568Z,24.30
2022-08-24T21:24:19.545Z,24.20
2022-08-24T21:26:49.142Z,24.20
2022-08-24T21:29:18.434Z,24.20
2022-08-24T21:32:07.735Z,24.20
2022-08-24T21:34:40.289Z,24.10
2022-08-24T21:37:10.983Z,24.10
2022-08-24T21:39:40.874Z,24.10
2022-08-24T21:42:11.013Z,24.10
2022-08-24T21:44:40.947Z,24.00
2022-08-24T21:47:10.758Z,24.00
2022-08-24T21:49:42.155Z,23.90
2022-08-24T21:52:11.426Z,23.90
2022-08-24T21:54:41.011Z,23.80
2022-08-24T21:57:10.668Z,23.80
2022-08-24T21:59:40.294Z,23.80
2022-08-24T22:02:10.717Z,23.80
2022-08-24T22:04:43.974Z,23.70
2022-08-24T22:07:13.210Z,23.70
2022-08-24T22:09:42.374Z,23.70
2022-08-24T22:12:11.565Z,23.60
2022-08-24T22:14:41.047Z,23.60
2022-08-24T22:17:10.054Z,23.50
2022-08-24T22:19:39.221Z,23.50
2022-08-24T22:22:11.311Z,23.50
2022-08-24T22:24:41.540Z,23.50
2022-08-24T22:27:11.007Z,23.40
2022-08-24T22:29:40.569Z,23.40
2022-08-24T22:32:09.901Z,23.30
2022-08-24T22:34:38.967Z,23.30
2022-08-24T22:37:08.178Z,23.30
2022-08-24T22:39:38.742Z,23.20
2022-08-24T22:42:08.539Z,23.20
2022-08-24T22:44:37.539Z,23.20
2022-08-24T22:47:13.175Z,23.20
2022-08-24T22:49:44.620Z,23.10
2022-08-24T22:52:15.438Z,23.10
2022-08-24T22:54:46.147Z,23.00
2022-08-24T22:57:14.968Z,23.00
2022-08-24T22:59:48.679Z,23.00
2022-08-24T23:02:19.687Z,22.90
2022-08-24T23:04:50.895Z,22.90
2022-08-24T23:07:20.856Z,22.80
2022-08-24T23:09:52.077Z,22.80
2022-08-24T23:12:23.521Z,22.80
2022-08-24T23:14:53.458Z,22.80
2022-08-24T23:17:23.948Z,22.80
2022-08-24T23:20:01.412Z,22.80
2022-08-24T23:22:33.204Z,22.70
2022-08-24T23:25:04.910Z,22.70
2022-08-24T23:27:38.068Z,22.70
2022-08-24T23:30:11.085Z,22.70
2022-08-24T23:32:40.387Z,22.70
2022-08-24T23:35:10.213Z,22.60
2022-08-24T23:37:39.200Z,22.60
2022-08-24T23:40:11.211Z,22.60
2022-08-24T23:42:40.321Z,22.60
2022-08-24T23:45:12.276Z,22.60
2022-08-24T23:47:42.009Z,22.60
2022-08-24T23:50:11.750Z,22.60
2022-08-24T23:52:41.727Z,22.60
2022-08-24T23:55:20.933Z,22.50
2022-08-24T23:57:52.307Z,22.50
